sensor_id;sensor_type;location;lat;lon;timestamp;P1;durP1;ratioP1;P2;durP2;ratioP2
25199;SDS011;33094;48.782;9.162;2022-11-15T00:00:27;8.10;;;4.50;;
25199;SDS011;33094;48.782;9.162;2022-11-15T00:02:53;9.48;;;5.93;;
25199;SDS011;33094;48.782;9.162;2022-11-15T00:05:19;10.17;;;4.73;;
25199;SDS011;33094;48.782;9.162;2022-11-15T00:07:45;8.15;;;5.32;;
25199;SDS011;33094;48.782;9.162;2022-11-15T00:10:11;7.70;;;4.78;;
25199;SDS011;33094;48.782;9.162;2022-11-15T00:12:37;7.03;;;4.70;;
25199;SDS011;33094;48.782;9.162;2022-11-15T00:15:03;12.05;;;5.25;;
25199;SDS011;33094;48.782;9.162;2022-11-15T00:17:29;6.67;;;4.07;;
25199;SDS011;33094;48.782;9.162;2022-11-15T00:19:55;6.72;;;4.53;;
25199;SDS011;33094;48.782;9.162;2022-11-15T00:22:21;8.05;;;4.47;;
25199;SDS011;33094;48.782;9.162;2022-11-15T00:24:47;10.13;;;4.10;;
25199;SDS011;33094;48.782;9.162;2022-11-15T00:27:13;7.40;;;3.83;;
25199;SDS011;33094;48.782;9.162;2022-11-15T00:29:39;8.45;;;4.40;;
25199;SDS011;33094;48.782;9.162;2022-11-15T00:32:08;9.13;;;4.85;;
25199;SDS011;33094;48.782;9.162;2022-11-15T00:34:35;9.07;;;4.63;;
25199;SDS011;33094;48.782;9.162;2022-11-15T00:37:01;10.70;;;4.80;;
25199;SDS011;33094;48.782;9.162;2022-11-15T00:39:27;9.90;;;4.82;;
25199;SDS011;33094;48.782;9.162;2022-11-15T00:41:53;12.88;;;5.00;;
25199;SDS011;33094;48.782;9.162;2022-11-15T00:44:19;11.00;;;4.78;;
25199;SDS011;33094;48.782;9.162;2022-11-15T00:46:45;10.07;;;4.90;;
25199;SDS011;33094;48.782;9.162;2022-11-15T00:49:10;10.75;;;5.00;;
25199;SDS011;33094;48.782;9.162;2022-11-15T00:51:36;7.53;;;4.68;;
25199;SDS011;33094;48.782;9.162;2022-11-15T00:54:02;6.35;;;4.25;;
25199;SDS011;33094;48.782;9.162;2022-11-15T00:56:29;10.48;;;4.53;;
25199;SDS011;33094;48.782;9.162;2022-11-15T00:58:54;7.15;;;4.95;;
25199;SDS011;33094;48.782;9.162;2022-11-15T01:01:20;6.07;;;4.00;;
25199;SDS011;33094;48.782;9.162;2022-11-15T01:03:46;7.75;;;4.22;;
25199;SDS011;33094;48.782;9.162;2022-11-15T01:06:13;12.80;;;4.57;;
25199;SDS011;33094;48.782;9.162;2022-11-15T01:08:39;7.00;;;4.13;;
25199;SDS011;33094;48.782;9.162;2022-11-15T01:11:06;14.27;;;3.95;;
25199;SDS011;33094;48.782;9.162;2022-11-15T01:13:34;8.57;;;4.13;;
25199;SDS011;33094;48.782;9.162;2022-11-15T01:16:07;10.85;;;4.40;;
25199;SDS011;33094;48.782;9.162;2022-11-15T01:18:35;6.30;;;4.15;;
25199;SDS011;33094;48.782;9.162;2022-11-15T01:21:05;7.60;;;4.93;;
25199;SDS011;33094;48.782;9.162;2022-11-15T01:23:35;8.63;;;5.18;;
25199;SDS011;33094;48.782;9.162;2022-11-15T01:26:02;12.67;;;6.43;;
25199;SDS011;33094;48.782;9.162;2022-11-15T01:28:33;10.00;;;5.13;;
25199;SDS011;33094;48.782;9.162;2022-11-15T01:31:00;11.95;;;4.28;;
25199;SDS011;33094;48.782;9.162;2022-11-15T01:35:53;28.38;;;5.72;;
25199;SDS011;33094;48.782;9.162;2022-11-15T01:38:19;12.63;;;6.13;;
25199;SDS011;33094;48.782;9.162;2022-11-15T01:40:45;13.70;;;6.07;;
25199;SDS011;33094;48.782;9.162;2022-11-15T01:43:18;18.93;;;6.20;;
25199;SDS011;33094;48.782;9.162;2022-11-15T01:45:56;10.48;;;4.85;;
25199;SDS011;33094;48.782;9.162;2022-11-15T01:48:40;9.70;;;4.95;;
25199;SDS011;33094;48.782;9.162;2022-11-15T01:51:07;9.00;;;4.85;;
25199;SDS011;33094;48.782;9.162;2022-11-15T01:53:38;8.50;;;4.85;;
25199;SDS011;33094;48.782;9.162;2022-11-15T01:56:07;8.27;;;4.70;;
25199;SDS011;33094;48.782;9.162;2022-11-15T01:58:36;10.93;;;4.75;;
25199;SDS011;33094;48.782;9.162;2022-11-15T02:01:02;8.67;;;4.70;;
25199;SDS011;33094;48.782;9.162;2022-11-15T02:03:34;9.85;;;4.63;;
25199;SDS011;33094;48.782;9.162;2022-11-15T02:06:08;8.68;;;4.70;;
25199;SDS011;33094;48.782;9.162;2022-11-15T02:08:34;6.05;;;4.03;;
25199;SDS011;33094;48.782;9.162;2022-11-15T02:11:00;7.75;;;4.07;;
25199;SDS011;33094;48.782;9.162;2022-11-15T02:13:26;5.80;;;3.80;;
25199;SDS011;33094;48.782;9.162;2022-11-15T02:16:03;8.27;;;4.38;;
25199;SDS011;33094;48.782;9.162;2022-11-15T02:18:41;6.72;;;4.03;;
25199;SDS011;33094;48.782;9.162;2022-11-15T02:32:48;6.85;;;3.55;;
25199;SDS011;33094;48.782;9.162;2022-11-15T02:38:05;5.55;;;3.55;;
25199;SDS011;33094;48.782;9.162;2022-11-15T02:43:23;3.90;;;2.92;;
25199;SDS011;33094;48.782;9.162;2022-11-15T02:49:21;8.07;;;3.83;;
25199;SDS011;33094;48.782;9.162;2022-11-15T02:51:49;10.90;;;4.07;;
25199;SDS011;33094;48.782;9.162;2022-11-15T02:54:19;7.05;;;4.28;;
25199;SDS011;33094;48.782;9.162;2022-11-15T02:56:47;7.88;;;3.55;;
25199;SDS011;33094;48.782;9.162;2022-11-15T02:59:27;7.40;;;3.60;;
25199;SDS011;33094;48.782;9.162;2022-11-15T03:09:51;6.68;;;3.70;;
25199;SDS011;33094;48.782;9.162;2022-11-15T03:14:57;9.20;;;3.63;;
25199;SDS011;33094;48.782;9.162;2022-11-15T03:17:36;8.57;;;4.15;;
25199;SDS011;33094;48.782;9.162;2022-11-15T03:20:24;6.47;;;3.97;;
25199;SDS011;33094;48.782;9.162;2022-11-15T03:22:52;7.60;;;4.35;;
25199;SDS011;33094;48.782;9.162;2022-11-15T03:25:21;9.57;;;3.80;;
25199;SDS011;33094;48.782;9.162;2022-11-15T03:27:50;7.80;;;3.88;;
25199;SDS011;33094;48.782;9.162;2022-11-15T03:30:18;9.05;;;3.90;;
25199;SDS011;33094;48.782;9.162;2022-11-15T03:32:54;8.02;;;4.35;;
25199;SDS011;33094;48.782;9.162;2022-11-15T03:35:27;7.60;;;4.50;;
25199;SDS011;33094;48.782;9.162;2022-11-15T03:37:59;15.75;;;4.43;;
25199;SDS011;33094;48.782;9.162;2022-11-15T03:40:30;9.23;;;3.92;;
25199;SDS011;33094;48.782;9.162;2022-11-15T03:43:07;10.98;;;4.40;;
25199;SDS011;33094;48.782;9.162;2022-11-15T03:46:07;6.18;;;3.72;;
25199;SDS011;33094;48.782;9.162;2022-11-15T03:48:43;14.77;;;3.80;;
25199;SDS011;33094;48.782;9.162;2022-11-15T03:51:36;7.13;;;3.65;;
25199;SDS011;33094;48.782;9.162;2022-11-15T03:54:05;6.68;;;3.35;;
25199;SDS011;33094;48.782;9.162;2022-11-15T03:56:31;19.33;;;4.57;;
25199;SDS011;33094;48.782;9.162;2022-11-15T03:58:58;18.40;;;4.87;;
25199;SDS011;33094;48.782;9.162;2022-11-15T04:01:24;15.15;;;5.25;;
25199;SDS011;33094;48.782;9.162;2022-11-15T04:03:50;11.95;;;4.30;;
25199;SDS011;33094;48.782;9.162;2022-11-15T04:06:16;10.77;;;3.88;;
25199;SDS011;33094;48.782;9.162;2022-11-15T04:08:42;8.27;;;4.40;;
25199;SDS011;33094;48.782;9.162;2022-11-15T04:11:08;16.50;;;4.95;;
25199;SDS011;33094;48.782;9.162;2022-11-15T04:13:33;21.50;;;4.78;;
25199;SDS011;33094;48.782;9.162;2022-11-15T04:15:59;11.45;;;4.20;;
25199;SDS011;33094;48.782;9.162;2022-11-15T04:18:25;14.43;;;4.32;;
25199;SDS011;33094;48.782;9.162;2022-11-15T04:20:51;15.07;;;5.63;;
25199;SDS011;33094;48.782;9.162;2022-11-15T04:23:35;11.45;;;6.03;;
25199;SDS011;33094;48.782;9.162;2022-11-15T04:26:17;13.43;;;6.00;;
25199;SDS011;33094;48.782;9.162;2022-11-15T04:28:45;8.82;;;5.40;;
25199;SDS011;33094;48.782;9.162;2022-11-15T04:31:30;12.77;;;5.47;;
25199;SDS011;33094;48.782;9.162;2022-11-15T04:33:56;9.93;;;4.68;;
25199;SDS011;33094;48.782;9.162;2022-11-15T04:36:22;8.18;;;3.90;;
25199;SDS011;33094;48.782;9.162;2022-11-15T04:39:06;4.43;;;3.38;;
25199;SDS011;33094;48.782;9.162;2022-11-15T04:41:33;6.27;;;3.63;;
25199;SDS011;33094;48.782;9.162;2022-11-15T04:43:59;6.30;;;4.45;;
25199;SDS011;33094;48.782;9.162;2022-11-15T04:46:25;6.60;;;3.55;;
25199;SDS011;33094;48.782;9.162;2022-11-15T04:48:51;6.32;;;4.25;;
25199;SDS011;33094;48.782;9.162;2022-11-15T04:51:17;9.02;;;3.83;;
25199;SDS011;33094;48.782;9.162;2022-11-15T04:53:43;7.75;;;4.13;;
25199;SDS011;33094;48.782;9.162;2022-11-15T04:56:09;10.20;;;4.50;;
25199;SDS011;33094;48.782;9.162;2022-11-15T04:58:35;7.47;;;4.20;;
25199;SDS011;33094;48.782;9.162;2022-11-15T05:01:11;5.25;;;3.38;;
25199;SDS011;33094;48.782;9.162;2022-11-15T05:03:39;8.90;;;4.25;;
25199;SDS011;33094;48.782;9.162;2022-11-15T05:06:24;8.23;;;4.20;;
25199;SDS011;33094;48.782;9.162;2022-11-15T05:08:50;6.10;;;3.33;;
25199;SDS011;33094;48.782;9.162;2022-11-15T05:11:16;12.95;;;4.40;;
25199;SDS011;33094;48.782;9.162;2022-11-15T05:13:42;4.40;;;3.55;;
25199;SDS011;33094;48.782;9.162;2022-11-15T05:16:09;4.88;;;3.45;;
25199;SDS011;33094;48.782;9.162;2022-11-15T05:18:35;6.97;;;3.45;;
25199;SDS011;33094;48.782;9.162;2022-11-15T05:21:04;10.15;;;3.38;;
25199;SDS011;33094;48.782;9.162;2022-11-15T05:23:30;4.65;;;3.60;;
25199;SDS011;33094;48.782;9.162;2022-11-15T05:26:00;8.63;;;4.03;;
25199;SDS011;33094;48.782;9.162;2022-11-15T05:28:29;4.53;;;3.60;;
25199;SDS011;33094;48.782;9.162;2022-11-15T05:31:02;8.13;;;4.18;;
25199;SDS011;33094;48.782;9.162;2022-11-15T05:33:28;8.00;;;3.55;;
25199;SDS011;33094;48.782;9.162;2022-11-15T05:35:54;6.93;;;3.67;;
25199;SDS011;33094;48.782;9.162;2022-11-15T05:38:42;6.07;;;4.18;;
25199;SDS011;33094;48.782;9.162;2022-11-15T05:41:08;10.40;;;4.97;;
25199;SDS011;33094;48.782;9.162;2022-11-15T05:43:35;7.40;;;5.10;;
25199;SDS011;33094;48.782;9.162;2022-11-15T05:46:03;14.73;;;6.50;;
25199;SDS011;33094;48.782;9.162;2022-11-15T05:48:29;12.65;;;5.35;;
25199;SDS011;33094;48.782;9.162;2022-11-15T05:50:56;13.00;;;5.30;;
25199;SDS011;33094;48.782;9.162;2022-11-15T05:53:22;9.07;;;5.13;;
25199;SDS011;33094;48.782;9.162;2022-11-15T05:55:49;12.13;;;5.57;;
25199;SDS011;33094;48.782;9.162;2022-11-15T05:58:19;7.15;;;4.80;;
25199;SDS011;33094;48.782;9.162;2022-11-15T06:00:45;11.50;;;5.13;;
25199;SDS011;33094;48.782;9.162;2022-11-15T06:03:11;11.52;;;6.05;;
25199;SDS011;33094;48.782;9.162;2022-11-15T06:05:39;15.05;;;6.22;;
25199;SDS011;33094;48.782;9.162;2022-11-15T06:08:05;9.63;;;6.65;;
25199;SDS011;33094;48.782;9.162;2022-11-15T06:10:31;9.68;;;5.50;;
25199;SDS011;33094;48.782;9.162;2022-11-15T06:12:58;10.20;;;7.07;;
25199;SDS011;33094;48.782;9.162;2022-11-15T06:15:24;8.47;;;5.80;;
25199;SDS011;33094;48.782;9.162;2022-11-15T06:17:50;11.10;;;5.65;;
25199;SDS011;33094;48.782;9.162;2022-11-15T06:20:16;14.37;;;6.57;;
25199;SDS011;33094;48.782;9.162;2022-11-15T06:22:42;13.02;;;6.72;;
25199;SDS011;33094;48.782;9.162;2022-11-15T06:25:08;11.48;;;6.28;;
25199;SDS011;33094;48.782;9.162;2022-11-15T06:27:34;10.05;;;5.82;;
25199;SDS011;33094;48.782;9.162;2022-11-15T06:30:00;11.38;;;5.78;;
25199;SDS011;33094;48.782;9.162;2022-11-15T06:32:28;8.38;;;5.30;;
25199;SDS011;33094;48.782;9.162;2022-11-15T06:34:54;7.43;;;5.25;;
25199;SDS011;33094;48.782;9.162;2022-11-15T06:37:19;9.15;;;4.38;;
25199;SDS011;33094;48.782;9.162;2022-11-15T06:39:45;7.93;;;5.78;;
25199;SDS011;33094;48.782;9.162;2022-11-15T06:42:11;13.55;;;5.93;;
25199;SDS011;33094;48.782;9.162;2022-11-15T06:44:37;6.30;;;4.43;;
25199;SDS011;33094;48.782;9.162;2022-11-15T06:47:03;9.80;;;5.07;;
25199;SDS011;33094;48.782;9.162;2022-11-15T06:49:29;12.70;;;6.20;;
25199;SDS011;33094;48.782;9.162;2022-11-15T06:51:55;22.33;;;8.43;;
25199;SDS011;33094;48.782;9.162;2022-11-15T06:54:20;11.63;;;5.72;;
25199;SDS011;33094;48.782;9.162;2022-11-15T06:56:47;16.17;;;6.88;;
25199;SDS011;33094;48.782;9.162;2022-11-15T06:59:13;10.55;;;4.80;;
25199;SDS011;33094;48.782;9.162;2022-11-15T07:01:40;10.23;;;5.15;;
25199;SDS011;33094;48.782;9.162;2022-11-15T07:04:06;11.32;;;5.65;;
25199;SDS011;33094;48.782;9.162;2022-11-15T07:06:32;21.10;;;11.77;;
25199;SDS011;33094;48.782;9.162;2022-11-15T07:08:57;22.40;;;8.20;;
25199;SDS011;33094;48.782;9.162;2022-11-15T07:11:23;11.07;;;6.28;;
25199;SDS011;33094;48.782;9.162;2022-11-15T07:13:49;28.42;;;7.35;;
25199;SDS011;33094;48.782;9.162;2022-11-15T07:16:15;15.38;;;6.88;;
25199;SDS011;33094;48.782;9.162;2022-11-15T07:18:40;12.68;;;4.65;;
25199;SDS011;33094;48.782;9.162;2022-11-15T07:21:08;7.93;;;5.20;;
25199;SDS011;33094;48.782;9.162;2022-11-15T07:23:35;11.30;;;5.03;;
25199;SDS011;33094;48.782;9.162;2022-11-15T07:26:02;7.88;;;4.65;;
25199;SDS011;33094;48.782;9.162;2022-11-15T07:28:29;6.85;;;4.82;;
25199;SDS011;33094;48.782;9.162;2022-11-15T07:30:55;12.82;;;6.47;;
25199;SDS011;33094;48.782;9.162;2022-11-15T07:33:21;11.35;;;5.05;;
25199;SDS011;33094;48.782;9.162;2022-11-15T07:35:47;11.60;;;5.13;;
25199;SDS011;33094;48.782;9.162;2022-11-15T07:38:15;8.73;;;4.72;;
25199;SDS011;33094;48.782;9.162;2022-11-15T07:40:44;10.00;;;5.00;;
25199;SDS011;33094;48.782;9.162;2022-11-15T07:43:10;10.30;;;5.30;;
25199;SDS011;33094;48.782;9.162;2022-11-15T07:45:42;15.82;;;6.40;;
25199;SDS011;33094;48.782;9.162;2022-11-15T07:48:10;12.43;;;5.40;;
25199;SDS011;33094;48.782;9.162;2022-11-15T07:50:36;12.13;;;5.40;;
25199;SDS011;33094;48.782;9.162;2022-11-15T07:53:02;12.82;;;5.25;;
25199;SDS011;33094;48.782;9.162;2022-11-15T07:55:28;7.82;;;4.80;;
25199;SDS011;33094;48.782;9.162;2022-11-15T07:58:01;15.18;;;5.57;;
25199;SDS011;33094;48.782;9.162;2022-11-15T08:00:33;13.13;;;5.63;;
25199;SDS011;33094;48.782;9.162;2022-11-15T08:03:17;11.20;;;5.37;;
25199;SDS011;33094;48.782;9.162;2022-11-15T08:05:43;16.65;;;6.88;;
25199;SDS011;33094;48.782;9.162;2022-11-15T08:08:09;16.92;;;8.25;;
25199;SDS011;33094;48.782;9.162;2022-11-15T08:10:36;13.57;;;7.85;;
25199;SDS011;33094;48.782;9.162;2022-11-15T08:13:06;16.55;;;7.18;;
25199;SDS011;33094;48.782;9.162;2022-11-15T08:15:34;19.10;;;8.25;;
25199;SDS011;33094;48.782;9.162;2022-11-15T08:18:02;16.65;;;7.10;;
25199;SDS011;33094;48.782;9.162;2022-11-15T08:20:32;17.88;;;8.35;;
25199;SDS011;33094;48.782;9.162;2022-11-15T08:25:26;16.73;;;7.65;;
25199;SDS011;33094;48.782;9.162;2022-11-15T08:27:52;17.05;;;8.52;;
25199;SDS011;33094;48.782;9.162;2022-11-15T08:30:18;21.25;;;8.95;;
25199;SDS011;33094;48.782;9.162;2022-11-15T08:32:44;15.52;;;9.20;;
25199;SDS011;33094;48.782;9.162;2022-11-15T08:35:10;18.45;;;9.55;;
25199;SDS011;33094;48.782;9.162;2022-11-15T08:37:36;16.73;;;9.00;;
25199;SDS011;33094;48.782;9.162;2022-11-15T08:40:02;14.90;;;8.88;;
25199;SDS011;33094;48.782;9.162;2022-11-15T08:42:28;19.38;;;9.00;;
25199;SDS011;33094;48.782;9.162;2022-11-15T08:44:55;18.48;;;9.82;;
25199;SDS011;33094;48.782;9.162;2022-11-15T08:47:21;16.38;;;9.23;;
25199;SDS011;33094;48.782;9.162;2022-11-15T08:49:47;18.25;;;9.13;;
25199;SDS011;33094;48.782;9.162;2022-11-15T08:52:13;14.33;;;8.20;;
25199;SDS011;33094;48.782;9.162;2022-11-15T08:54:39;16.85;;;8.35;;
25199;SDS011;33094;48.782;9.162;2022-11-15T08:57:06;20.85;;;8.63;;
25199;SDS011;33094;48.782;9.162;2022-11-15T08:59:32;14.85;;;8.20;;
25199;SDS011;33094;48.782;9.162;2022-11-15T09:01:58;15.07;;;7.47;;
25199;SDS011;33094;48.782;9.162;2022-11-15T09:04:24;16.33;;;7.75;;
25199;SDS011;33094;48.782;9.162;2022-11-15T09:06:50;16.02;;;8.02;;
25199;SDS011;33094;48.782;9.162;2022-11-15T09:09:16;11.00;;;7.18;;
25199;SDS011;33094;48.782;9.162;2022-11-15T09:11:41;15.93;;;7.40;;
25199;SDS011;33094;48.782;9.162;2022-11-15T09:14:10;15.47;;;6.53;;
25199;SDS011;33094;48.782;9.162;2022-11-15T09:16:39;14.77;;;6.75;;
25199;SDS011;33094;48.782;9.162;2022-11-15T09:19:08;14.20;;;6.25;;
25199;SDS011;33094;48.782;9.162;2022-11-15T09:21:34;10.20;;;5.90;;
25199;SDS011;33094;48.782;9.162;2022-11-15T09:24:00;19.17;;;6.10;;
25199;SDS011;33094;48.782;9.162;2022-11-15T09:26:25;15.07;;;6.32;;
25199;SDS011;33094;48.782;9.162;2022-11-15T09:28:51;13.13;;;6.70;;
25199;SDS011;33094;48.782;9.162;2022-11-15T09:31:17;13.75;;;6.15;;
25199;SDS011;33094;48.782;9.162;2022-11-15T09:33:43;13.45;;;6.15;;
25199;SDS011;33094;48.782;9.162;2022-11-15T09:36:10;15.40;;;6.65;;
25199;SDS011;33094;48.782;9.162;2022-11-15T09:38:36;15.90;;;6.70;;
25199;SDS011;33094;48.782;9.162;2022-11-15T09:46:19;11.18;;;6.65;;
25199;SDS011;33094;48.782;9.162;2022-11-15T09:49:08;9.80;;;6.80;;
25199;SDS011;33094;48.782;9.162;2022-11-15T09:51:36;14.00;;;6.45;;
25199;SDS011;33094;48.782;9.162;2022-11-15T09:56:41;15.68;;;6.40;;
25199;SDS011;33094;48.782;9.162;2022-11-15T10:04:27;12.52;;;6.35;;
25199;SDS011;33094;48.782;9.162;2022-11-15T10:06:57;11.50;;;6.15;;
25199;SDS011;33094;48.782;9.162;2022-11-15T10:09:27;12.70;;;6.55;;
25199;SDS011;33094;48.782;9.162;2022-11-15T10:11:58;11.18;;;6.60;;
25199;SDS011;33094;48.782;9.162;2022-11-15T10:14:25;15.73;;;6.23;;
25199;SDS011;33094;48.782;9.162;2022-11-15T10:22:28;12.85;;;6.85;;
25199;SDS011;33094;48.782;9.162;2022-11-15T10:25:23;13.27;;;6.90;;
25199;SDS011;33094;48.782;9.162;2022-11-15T10:28:13;12.30;;;6.65;;
25199;SDS011;33094;48.782;9.162;2022-11-15T10:33:26;17.20;;;6.72;;
25199;SDS011;33094;48.782;9.162;2022-11-15T10:41:17;15.23;;;7.50;;
25199;SDS011;33094;48.782;9.162;2022-11-15T10:46:28;11.02;;;6.45;;
25199;SDS011;33094;48.782;9.162;2022-11-15T10:49:04;14.18;;;6.95;;
25199;SDS011;33094;48.782;9.162;2022-11-15T10:51:48;11.25;;;6.95;;
25199;SDS011;33094;48.782;9.162;2022-11-15T10:54:24;16.13;;;6.78;;
25199;SDS011;33094;48.782;9.162;2022-11-15T10:56:54;11.48;;;6.10;;
25199;SDS011;33094;48.782;9.162;2022-11-15T10:59:31;11.45;;;6.97;;
25199;SDS011;33094;48.782;9.162;2022-11-15T11:02:00;18.20;;;7.15;;
25199;SDS011;33094;48.782;9.162;2022-11-15T11:04:26;17.25;;;6.78;;
25199;SDS011;33094;48.782;9.162;2022-11-15T11:06:56;15.70;;;7.35;;
25199;SDS011;33094;48.782;9.162;2022-11-15T11:09:34;19.85;;;7.40;;
25199;SDS011;33094;48.782;9.162;2022-11-15T11:12:02;25.13;;;11.23;;
25199;SDS011;33094;48.782;9.162;2022-11-15T11:14:29;15.40;;;8.40;;
25199;SDS011;33094;48.782;9.162;2022-11-15T11:25:30;26.30;;;9.20;;
25199;SDS011;33094;48.782;9.162;2022-11-15T11:36:57;16.88;;;8.45;;
25199;SDS011;33094;48.782;9.162;2022-11-15T11:39:59;19.42;;;12.10;;
25199;SDS011;33094;48.782;9.162;2022-11-15T11:42:44;20.38;;;11.00;;
25199;SDS011;33094;48.782;9.162;2022-11-15T11:48:40;12.57;;;6.72;;
25199;SDS011;33094;48.782;9.162;2022-11-15T11:51:16;12.88;;;6.80;;
25199;SDS011;33094;48.782;9.162;2022-11-15T11:53:54;15.05;;;8.32;;
25199;SDS011;33094;48.782;9.162;2022-11-15T11:56:36;10.98;;;5.13;;
25199;SDS011;33094;48.782;9.162;2022-11-15T11:59:25;10.82;;;5.25;;
25199;SDS011;33094;48.782;9.162;2022-11-15T12:02:00;31.55;;;20.27;;
25199;SDS011;33094;48.782;9.162;2022-11-15T12:04:42;12.25;;;7.65;;
25199;SDS011;33094;48.782;9.162;2022-11-15T12:13:23;14.13;;;6.88;;
25199;SDS011;33094;48.782;9.162;2022-11-15T12:18:25;12.45;;;5.93;;
25199;SDS011;33094;48.782;9.162;2022-11-15T12:20:52;14.65;;;5.78;;
25199;SDS011;33094;48.782;9.162;2022-11-15T12:23:25;15.35;;;6.22;;
25199;SDS011;33094;48.782;9.162;2022-11-15T12:31:05;9.75;;;5.13;;
25199;SDS011;33094;48.782;9.162;2022-11-15T12:33:55;9.68;;;5.07;;
25199;SDS011;33094;48.782;9.162;2022-11-15T12:41:29;10.95;;;6.22;;
25199;SDS011;33094;48.782;9.162;2022-11-15T12:43:57;23.30;;;12.07;;
25199;SDS011;33094;48.782;9.162;2022-11-15T12:48:51;9.63;;;5.53;;
25199;SDS011;33094;48.782;9.162;2022-11-15T12:51:19;11.00;;;6.30;;
25199;SDS011;33094;48.782;9.162;2022-11-15T12:53:47;16.27;;;6.57;;
25199;SDS011;33094;48.782;9.162;2022-11-15T13:06:51;21.40;;;7.18;;
25199;SDS011;33094;48.782;9.162;2022-11-15T13:12:06;12.80;;;6.47;;
25199;SDS011;33094;48.782;9.162;2022-11-15T13:14:59;14.57;;;4.20;;
25199;SDS011;33094;48.782;9.162;2022-11-15T13:17:29;9.60;;;3.90;;
25199;SDS011;33094;48.782;9.162;2022-11-15T13:22:49;8.70;;;4.25;;
25199;SDS011;33094;48.782;9.162;2022-11-15T13:25:18;11.35;;;4.00;;
25199;SDS011;33094;48.782;9.162;2022-11-15T13:27:47;7.28;;;3.83;;
25199;SDS011;33094;48.782;9.162;2022-11-15T13:30:16;6.60;;;3.60;;
25199;SDS011;33094;48.782;9.162;2022-11-15T13:32:45;10.05;;;3.63;;
25199;SDS011;33094;48.782;9.162;2022-11-15T13:35:22;11.53;;;4.53;;
25199;SDS011;33094;48.782;9.162;2022-11-15T13:37:51;6.20;;;3.47;;
25199;SDS011;33094;48.782;9.162;2022-11-15T13:40:23;13.75;;;3.75;;
25199;SDS011;33094;48.782;9.162;2022-11-15T13:42:57;11.68;;;4.93;;
25199;SDS011;33094;48.782;9.162;2022-11-15T13:45:24;12.38;;;5.07;;
25199;SDS011;33094;48.782;9.162;2022-11-15T13:47:58;14.60;;;5.50;;
25199;SDS011;33094;48.782;9.162;2022-11-15T13:50:29;9.48;;;5.82;;
25199;SDS011;33094;48.782;9.162;2022-11-15T13:52:59;14.02;;;6.32;;
25199;SDS011;33094;48.782;9.162;2022-11-15T13:55:28;11.35;;;4.43;;
25199;SDS011;33094;48.782;9.162;2022-11-15T14:03:32;8.88;;;5.07;;
25199;SDS011;33094;48.782;9.162;2022-11-15T14:06:04;12.23;;;5.50;;
25199;SDS011;33094;48.782;9.162;2022-11-15T14:08:41;8.60;;;4.90;;
25199;SDS011;33094;48.782;9.162;2022-11-15T14:11:22;9.27;;;6.28;;
25199;SDS011;33094;48.782;9.162;2022-11-15T14:16:35;12.95;;;5.75;;
25199;SDS011;33094;48.782;9.162;2022-11-15T14:19:03;12.07;;;5.45;;
25199;SDS011;33094;48.782;9.162;2022-11-15T14:21:30;13.38;;;5.65;;
25199;SDS011;33094;48.782;9.162;2022-11-15T14:24:16;12.73;;;5.57;;
25199;SDS011;33094;48.782;9.162;2022-11-15T14:26:43;8.90;;;5.55;;
25199;SDS011;33094;48.782;9.162;2022-11-15T14:29:28;11.93;;;5.65;;
25199;SDS011;33094;48.782;9.162;2022-11-15T14:32:41;13.85;;;5.63;;
25199;SDS011;33094;48.782;9.162;2022-11-15T14:34:42;13.25;;;6.10;;
25199;SDS011;33094;48.782;9.162;2022-11-15T14:37:27;6.90;;;5.22;;
25199;SDS011;33094;48.782;9.162;2022-11-15T14:39:58;8.63;;;5.88;;
25199;SDS011;33094;48.782;9.162;2022-11-15T14:42:24;11.10;;;5.70;;
25199;SDS011;33094;48.782;9.162;2022-11-15T14:44:50;7.90;;;5.13;;
25199;SDS011;33094;48.782;9.162;2022-11-15T14:47:16;10.57;;;5.50;;
25199;SDS011;33094;48.782;9.162;2022-11-15T14:49:43;6.57;;;4.38;;
25199;SDS011;33094;48.782;9.162;2022-11-15T14:52:23;10.15;;;4.55;;
25199;SDS011;33094;48.782;9.162;2022-11-15T14:54:53;6.75;;;4.40;;
25199;SDS011;33094;48.782;9.162;2022-11-15T14:57:20;7.25;;;4.53;;
25199;SDS011;33094;48.782;9.162;2022-11-15T14:59:45;6.88;;;4.30;;
25199;SDS011;33094;48.782;9.162;2022-11-15T15:02:19;10.82;;;5.07;;
25199;SDS011;33094;48.782;9.162;2022-11-15T15:04:48;6.88;;;4.95;;
25199;SDS011;33094;48.782;9.162;2022-11-15T15:07:14;9.57;;;5.95;;
25199;SDS011;33094;48.782;9.162;2022-11-15T15:09:40;12.95;;;6.53;;
25199;SDS011;33094;48.782;9.162;2022-11-15T15:12:16;7.90;;;5.03;;
25199;SDS011;33094;48.782;9.162;2022-11-15T15:17:09;14.18;;;6.35;;
25199;SDS011;33094;48.782;9.162;2022-11-15T15:19:36;8.20;;;5.25;;
25199;SDS011;33094;48.782;9.162;2022-11-15T15:22:02;15.27;;;4.93;;
25199;SDS011;33094;48.782;9.162;2022-11-15T15:24:28;9.75;;;6.32;;
25199;SDS011;33094;48.782;9.162;2022-11-15T15:26:53;7.35;;;5.10;;
25199;SDS011;33094;48.782;9.162;2022-11-15T15:29:19;15.32;;;5.13;;
25199;SDS011;33094;48.782;9.162;2022-11-15T15:31:45;7.50;;;5.95;;
25199;SDS011;33094;48.782;9.162;2022-11-15T15:34:12;12.90;;;6.10;;
25199;SDS011;33094;48.782;9.162;2022-11-15T15:36:38;8.75;;;4.75;;
25199;SDS011;33094;48.782;9.162;2022-11-15T15:39:04;13.93;;;6.47;;
25199;SDS011;33094;48.782;9.162;2022-11-15T15:41:30;9.18;;;6.03;;
25199;SDS011;33094;48.782;9.162;2022-11-15T15:43:56;13.00;;;6.65;;
25199;SDS011;33094;48.782;9.162;2022-11-15T15:46:22;12.35;;;5.85;;
25199;SDS011;33094;48.782;9.162;2022-11-15T15:48:48;14.65;;;6.90;;
25199;SDS011;33094;48.782;9.162;2022-11-15T15:51:14;14.90;;;6.32;;
25199;SDS011;33094;48.782;9.162;2022-11-15T15:53:40;15.95;;;10.05;;
25199;SDS011;33094;48.782;9.162;2022-11-15T15:56:06;17.98;;;9.07;;
25199;SDS011;33094;48.782;9.162;2022-11-15T15:58:35;11.02;;;6.80;;
25199;SDS011;33094;48.782;9.162;2022-11-15T16:01:01;14.38;;;6.72;;
25199;SDS011;33094;48.782;9.162;2022-11-15T16:03:29;15.65;;;6.20;;
25199;SDS011;33094;48.782;9.162;2022-11-15T16:05:56;12.80;;;6.78;;
25199;SDS011;33094;48.782;9.162;2022-11-15T16:10:49;20.40;;;6.25;;
25199;SDS011;33094;48.782;9.162;2022-11-15T16:13:15;10.20;;;6.17;;
25199;SDS011;33094;48.782;9.162;2022-11-15T16:18:08;14.37;;;6.87;;
25199;SDS011;33094;48.782;9.162;2022-11-15T16:20:41;13.40;;;7.18;;
25199;SDS011;33094;48.782;9.162;2022-11-15T16:23:10;23.17;;;8.27;;
25199;SDS011;33094;48.782;9.162;2022-11-15T16:28:04;37.85;;;15.48;;
25199;SDS011;33094;48.782;9.162;2022-11-15T16:30:30;35.20;;;18.17;;
25199;SDS011;33094;48.782;9.162;2022-11-15T16:32:56;47.42;;;25.95;;
25199;SDS011;33094;48.782;9.162;2022-11-15T16:35:22;19.02;;;10.23;;
25199;SDS011;33094;48.782;9.162;2022-11-15T16:40:28;21.67;;;7.93;;
25199;SDS011;33094;48.782;9.162;2022-11-15T16:42:56;20.98;;;8.13;;
25199;SDS011;33094;48.782;9.162;2022-11-15T16:45:23;14.38;;;7.80;;
25199;SDS011;33094;48.782;9.162;2022-11-15T16:47:50;14.33;;;7.93;;
25199;SDS011;33094;48.782;9.162;2022-11-15T16:50:20;10.17;;;6.80;;
25199;SDS011;33094;48.782;9.162;2022-11-15T16:52:57;11.88;;;5.45;;
25199;SDS011;33094;48.782;9.162;2022-11-15T16:55:24;12.93;;;5.95;;
25199;SDS011;33094;48.782;9.162;2022-11-15T16:57:52;14.05;;;6.88;;
25199;SDS011;33094;48.782;9.162;2022-11-15T17:00:18;13.13;;;6.67;;
25199;SDS011;33094;48.782;9.162;2022-11-15T17:02:46;9.20;;;6.03;;
25199;SDS011;33094;48.782;9.162;2022-11-15T17:05:13;13.93;;;6.50;;
25199;SDS011;33094;48.782;9.162;2022-11-15T17:10:06;9.43;;;5.23;;
25199;SDS011;33094;48.782;9.162;2022-11-15T17:12:33;12.15;;;5.88;;
25199;SDS011;33094;48.782;9.162;2022-11-15T17:15:00;9.23;;;6.20;;
25199;SDS011;33094;48.782;9.162;2022-11-15T17:17:26;10.52;;;5.50;;